sensor_id;sensor_type;location;lat;lon;timestamp;P1;durP1;ratioP1;P2;durP2;ratioP2
25327;SDS011;13279;51.300;12.394;2023-07-20T00:00:16;12.67;;;6.60;;
25327;SDS011;13279;51.300;12.394;2023-07-20T00:02:45;9.93;;;6.90;;
25327;SDS011;13279;51.300;12.394;2023-07-20T00:05:12;8.57;;;6.53;;
25327;SDS011;13279;51.300;12.394;2023-07-20T00:07:39;7.80;;;6.67;;
25327;SDS011;13279;51.300;12.394;2023-07-20T00:10:07;9.70;;;6.93;;
25327;SDS011;13279;51.300;12.394;2023-07-20T00:12:35;10.83;;;6.70;;
25327;SDS011;13279;51.300;12.394;2023-07-20T00:15:03;8.20;;;7.40;;
25327;SDS011;13279;51.300;12.394;2023-07-20T00:17:31;8.63;;;7.57;;
25327;SDS011;13279;51.300;12.394;2023-07-20T00:20:00;12.70;;;7.67;;
25327;SDS011;13279;51.300;12.394;2023-07-20T00:22:27;7.93;;;6.87;;
25327;SDS011;13279;51.300;12.394;2023-07-20T00:24:55;8.67;;;7.40;;
25327;SDS011;13279;51.300;12.394;2023-07-20T00:27:22;9.17;;;6.80;;
25327;SDS011;13279;51.300;12.394;2023-07-20T00:29:51;9.50;;;7.13;;
25327;SDS011;13279;51.300;12.394;2023-07-20T00:32:18;8.30;;;7.50;;
25327;SDS011;13279;51.300;12.394;2023-07-20T00:34:46;12.37;;;7.10;;
25327;SDS011;13279;51.300;12.394;2023-07-20T00:37:14;16.63;;;7.97;;
25327;SDS011;13279;51.300;12.394;2023-07-20T00:39:42;17.03;;;7.63;;
25327;SDS011;13279;51.300;12.394;2023-07-20T00:42:09;10.33;;;7.33;;
25327;SDS011;13279;51.300;12.394;2023-07-20T00:44:37;10.20;;;6.10;;
25327;SDS011;13279;51.300;12.394;2023-07-20T00:47:05;10.90;;;6.47;;
25327;SDS011;13279;51.300;12.394;2023-07-20T00:49:33;7.57;;;6.47;;
25327;SDS011;13279;51.300;12.394;2023-07-20T00:52:00;9.40;;;6.63;;
25327;SDS011;13279;51.300;12.394;2023-07-20T00:54:31;7.80;;;6.40;;
25327;SDS011;13279;51.300;12.394;2023-07-20T00:56:59;7.50;;;5.67;;
25327;SDS011;13279;51.300;12.394;2023-07-20T00:59:28;6.73;;;5.90;;
25327;SDS011;13279;51.300;12.394;2023-07-20T01:01:55;9.57;;;6.00;;
25327;SDS011;13279;51.300;12.394;2023-07-20T01:04:23;10.10;;;5.80;;
25327;SDS011;13279;51.300;12.394;2023-07-20T01:06:56;5.97;;;4.90;;
25327;SDS011;13279;51.300;12.394;2023-07-20T01:09:31;13.37;;;5.07;;
25327;SDS011;13279;51.300;12.394;2023-07-20T01:12:07;7.87;;;4.07;;
25327;SDS011;13279;51.300;12.394;2023-07-20T01:14:39;7.20;;;4.13;;
25327;SDS011;13279;51.300;12.394;2023-07-20T01:17:07;7.97;;;3.80;;
25327;SDS011;13279;51.300;12.394;2023-07-20T01:19:35;8.50;;;3.90;;
25327;SDS011;13279;51.300;12.394;2023-07-20T01:22:03;10.30;;;3.80;;
25327;SDS011;13279;51.300;12.394;2023-07-20T01:24:59;4.90;;;3.50;;
25327;SDS011;13279;51.300;12.394;2023-07-20T01:30:55;4.33;;;3.30;;
25327;SDS011;13279;51.300;12.394;2023-07-20T01:33:30;7.03;;;3.80;;
25327;SDS011;13279;51.300;12.394;2023-07-20T01:36:00;4.33;;;3.13;;
25327;SDS011;13279;51.300;12.394;2023-07-20T01:38:28;6.73;;;3.70;;
25327;SDS011;13279;51.300;12.394;2023-07-20T01:40:56;5.50;;;3.90;;
25327;SDS011;13279;51.300;12.394;2023-07-20T01:43:24;4.87;;;3.50;;
25327;SDS011;13279;51.300;12.394;2023-07-20T01:45:52;6.60;;;3.97;;
25327;SDS011;13279;51.300;12.394;2023-07-20T01:48:19;6.77;;;4.00;;
25327;SDS011;13279;51.300;12.394;2023-07-20T01:50:48;8.70;;;4.10;;
25327;SDS011;13279;51.300;12.394;2023-07-20T01:53:15;4.47;;;3.97;;
25327;SDS011;13279;51.300;12.394;2023-07-20T01:55:43;12.17;;;3.70;;
25327;SDS011;13279;51.300;12.394;2023-07-20T01:58:12;6.53;;;4.13;;
25327;SDS011;13279;51.300;12.394;2023-07-20T02:00:40;8.77;;;5.17;;
25327;SDS011;13279;51.300;12.394;2023-07-20T02:03:07;6.73;;;5.20;;
25327;SDS011;13279;51.300;12.394;2023-07-20T02:05:34;8.67;;;4.67;;
25327;SDS011;13279;51.300;12.394;2023-07-20T02:08:03;9.47;;;5.37;;
25327;SDS011;13279;51.300;12.394;2023-07-20T02:10:31;10.50;;;5.07;;
25327;SDS011;13279;51.300;12.394;2023-07-20T02:12:58;7.67;;;5.10;;
25327;SDS011;13279;51.300;12.394;2023-07-20T02:15:48;9.13;;;4.97;;
25327;SDS011;13279;51.300;12.394;2023-07-20T02:18:16;5.87;;;4.87;;
25327;SDS011;13279;51.300;12.394;2023-07-20T02:20:43;5.73;;;4.60;;
25327;SDS011;13279;51.300;12.394;2023-07-20T02:23:13;8.30;;;5.43;;
25327;SDS011;13279;51.300;12.394;2023-07-20T02:25:40;9.33;;;5.27;;
25327;SDS011;13279;51.300;12.394;2023-07-20T02:28:08;6.70;;;5.30;;
25327;SDS011;13279;51.300;12.394;2023-07-20T02:30:37;10.70;;;4.77;;
25327;SDS011;13279;51.300;12.394;2023-07-20T02:33:05;5.60;;;4.73;;
25327;SDS011;13279;51.300;12.394;2023-07-20T02:35:33;6.33;;;5.43;;
25327;SDS011;13279;51.300;12.394;2023-07-20T02:38:01;10.47;;;5.87;;
25327;SDS011;13279;51.300;12.394;2023-07-20T02:40:29;9.93;;;5.50;;
25327;SDS011;13279;51.300;12.394;2023-07-20T02:42:57;9.33;;;5.50;;
25327;SDS011;13279;51.300;12.394;2023-07-20T02:45:25;11.60;;;5.83;;
25327;SDS011;13279;51.300;12.394;2023-07-20T02:47:52;10.13;;;5.47;;
25327;SDS011;13279;51.300;12.394;2023-07-20T02:50:19;9.43;;;5.97;;
25327;SDS011;13279;51.300;12.394;2023-07-20T02:52:47;7.80;;;6.23;;
25327;SDS011;13279;51.300;12.394;2023-07-20T02:55:15;10.80;;;6.37;;
25327;SDS011;13279;51.300;12.394;2023-07-20T02:57:44;8.87;;;6.30;;
25327;SDS011;13279;51.300;12.394;2023-07-20T03:00:12;8.43;;;5.83;;
25327;SDS011;13279;51.300;12.394;2023-07-20T03:02:42;8.67;;;6.80;;
25327;SDS011;13279;51.300;12.394;2023-07-20T03:05:09;9.93;;;5.57;;
25327;SDS011;13279;51.300;12.394;2023-07-20T03:07:37;11.87;;;6.53;;
25327;SDS011;13279;51.300;12.394;2023-07-20T03:10:05;11.17;;;6.60;;
25327;SDS011;13279;51.300;12.394;2023-07-20T03:12:34;13.80;;;6.53;;
25327;SDS011;13279;51.300;12.394;2023-07-20T03:15:03;11.70;;;6.30;;
25327;SDS011;13279;51.300;12.394;2023-07-20T03:17:32;7.13;;;6.43;;
25327;SDS011;13279;51.300;12.394;2023-07-20T03:20:01;11.07;;;7.00;;
25327;SDS011;13279;51.300;12.394;2023-07-20T03:22:29;11.43;;;6.73;;
25327;SDS011;13279;51.300;12.394;2023-07-20T03:24:57;8.63;;;6.43;;
25327;SDS011;13279;51.300;12.394;2023-07-20T03:27:26;8.53;;;6.60;;
25327;SDS011;13279;51.300;12.394;2023-07-20T03:29:54;9.87;;;6.77;;
25327;SDS011;13279;51.300;12.394;2023-07-20T03:32:23;10.67;;;7.43;;
25327;SDS011;13279;51.300;12.394;2023-07-20T03:34:50;11.23;;;7.57;;
25327;SDS011;13279;51.300;12.394;2023-07-20T03:37:18;13.97;;;8.33;;
25327;SDS011;13279;51.300;12.394;2023-07-20T03:39:45;11.30;;;8.00;;
25327;SDS011;13279;51.300;12.394;2023-07-20T03:42:12;12.40;;;8.13;;
25327;SDS011;13279;51.300;12.394;2023-07-20T03:44:40;13.13;;;8.63;;
25327;SDS011;13279;51.300;12.394;2023-07-20T03:47:07;14.47;;;8.20;;
25327;SDS011;13279;51.300;12.394;2023-07-20T03:49:36;17.53;;;8.63;;
25327;SDS011;13279;51.300;12.394;2023-07-20T03:52:06;19.10;;;8.90;;
25327;SDS011;13279;51.300;12.394;2023-07-20T03:54:33;14.30;;;9.27;;
25327;SDS011;13279;51.300;12.394;2023-07-20T03:57:01;15.73;;;8.40;;
25327;SDS011;13279;51.300;12.394;2023-07-20T03:59:28;15.13;;;10.10;;
25327;SDS011;13279;51.300;12.394;2023-07-20T04:01:55;18.10;;;8.77;;
25327;SDS011;13279;51.300;12.394;2023-07-20T04:04:22;17.30;;;9.10;;
25327;SDS011;13279;51.300;12.394;2023-07-20T04:06:51;10.43;;;9.10;;
25327;SDS011;13279;51.300;12.394;2023-07-20T04:09:19;16.67;;;8.97;;
25327;SDS011;13279;51.300;12.394;2023-07-20T04:11:46;22.27;;;9.13;;
25327;SDS011;13279;51.300;12.394;2023-07-20T04:14:13;16.33;;;9.33;;
25327;SDS011;13279;51.300;12.394;2023-07-20T04:16:41;15.93;;;8.80;;
25327;SDS011;13279;51.300;12.394;2023-07-20T04:19:09;10.27;;;8.13;;
25327;SDS011;13279;51.300;12.394;2023-07-20T04:21:39;14.73;;;8.33;;
25327;SDS011;13279;51.300;12.394;2023-07-20T04:24:09;15.00;;;8.40;;
25327;SDS011;13279;51.300;12.394;2023-07-20T04:26:37;17.87;;;8.77;;
25327;SDS011;13279;51.300;12.394;2023-07-20T04:29:04;11.07;;;7.70;;
25327;SDS011;13279;51.300;12.394;2023-07-20T04:31:38;9.33;;;8.27;;
25327;SDS011;13279;51.300;12.394;2023-07-20T04:34:07;18.57;;;9.93;;
25327;SDS011;13279;51.300;12.394;2023-07-20T04:36:35;16.70;;;9.37;;
25327;SDS011;13279;51.300;12.394;2023-07-20T04:39:03;11.60;;;8.60;;
25327;SDS011;13279;51.300;12.394;2023-07-20T04:41:39;17.40;;;9.40;;
25327;SDS011;13279;51.300;12.394;2023-07-20T04:44:07;22.97;;;10.63;;
25327;SDS011;13279;51.300;12.394;2023-07-20T04:46:34;12.30;;;10.20;;
25327;SDS011;13279;51.300;12.394;2023-07-20T04:49:03;21.23;;;10.43;;
25327;SDS011;13279;51.300;12.394;2023-07-20T04:51:34;11.17;;;10.17;;
25327;SDS011;13279;51.300;12.394;2023-07-20T04:54:02;21.13;;;10.67;;
25327;SDS011;13279;51.300;12.394;2023-07-20T04:56:34;18.73;;;10.40;;
25327;SDS011;13279;51.300;12.394;2023-07-20T04:59:06;16.20;;;10.80;;
25327;SDS011;13279;51.300;12.394;2023-07-20T05:01:34;14.70;;;10.10;;
25327;SDS011;13279;51.300;12.394;2023-07-20T05:04:01;13.97;;;10.40;;
25327;SDS011;13279;51.300;12.394;2023-07-20T05:06:28;18.67;;;10.17;;
25327;SDS011;13279;51.300;12.394;2023-07-20T05:08:56;19.00;;;10.37;;
25327;SDS011;13279;51.300;12.394;2023-07-20T05:11:24;18.00;;;11.73;;
25327;SDS011;13279;51.300;12.394;2023-07-20T05:13:51;27.70;;;12.43;;
25327;SDS011;13279;51.300;12.394;2023-07-20T05:16:20;16.33;;;12.83;;
25327;SDS011;13279;51.300;12.394;2023-07-20T05:18:47;18.43;;;13.23;;
25327;SDS011;13279;51.300;12.394;2023-07-20T05:21:15;19.97;;;12.67;;
25327;SDS011;13279;51.300;12.394;2023-07-20T05:23:43;23.00;;;10.80;;
25327;SDS011;13279;51.300;12.394;2023-07-20T05:26:12;19.50;;;10.57;;
25327;SDS011;13279;51.300;12.394;2023-07-20T05:28:39;17.93;;;10.20;;
25327;SDS011;13279;51.300;12.394;2023-07-20T05:31:07;14.67;;;11.50;;
25327;SDS011;13279;51.300;12.394;2023-07-20T05:33:35;23.53;;;13.07;;
25327;SDS011;13279;51.300;12.394;2023-07-20T05:36:03;15.90;;;11.83;;
25327;SDS011;13279;51.300;12.394;2023-07-20T05:38:31;20.27;;;11.93;;
25327;SDS011;13279;51.300;12.394;2023-07-20T05:40:59;12.60;;;10.93;;
25327;SDS011;13279;51.300;12.394;2023-07-20T05:43:27;22.93;;;10.37;;
25327;SDS011;13279;51.300;12.394;2023-07-20T05:45:55;17.00;;;10.23;;
25327;SDS011;13279;51.300;12.394;2023-07-20T05:48:23;18.77;;;11.67;;
25327;SDS011;13279;51.300;12.394;2023-07-20T05:50:52;18.73;;;12.07;;
25327;SDS011;13279;51.300;12.394;2023-07-20T05:53:19;14.10;;;10.80;;
25327;SDS011;13279;51.300;12.394;2023-07-20T05:55:51;16.63;;;12.67;;
25327;SDS011;13279;51.300;12.394;2023-07-20T05:58:19;18.20;;;12.17;;
25327;SDS011;13279;51.300;12.394;2023-07-20T06:00:47;22.23;;;11.97;;
25327;SDS011;13279;51.300;12.394;2023-07-20T06:03:15;21.90;;;13.40;;
25327;SDS011;13279;51.300;12.394;2023-07-20T06:05:43;18.97;;;12.97;;
25327;SDS011;13279;51.300;12.394;2023-07-20T06:08:12;21.70;;;12.10;;
25327;SDS011;13279;51.300;12.394;2023-07-20T06:10:39;22.77;;;12.23;;
25327;SDS011;13279;51.300;12.394;2023-07-20T06:13:07;20.20;;;9.73;;
25327;SDS011;13279;51.300;12.394;2023-07-20T06:15:34;15.63;;;10.03;;
25327;SDS011;13279;51.300;12.394;2023-07-20T06:18:01;22.63;;;11.13;;
25327;SDS011;13279;51.300;12.394;2023-07-20T06:20:29;17.87;;;10.47;;
25327;SDS011;13279;51.300;12.394;2023-07-20T06:22:56;15.87;;;10.70;;
25327;SDS011;13279;51.300;12.394;2023-07-20T06:25:25;15.67;;;10.90;;
25327;SDS011;13279;51.300;12.394;2023-07-20T06:27:54;17.00;;;10.83;;
25327;SDS011;13279;51.300;12.394;2023-07-20T06:30:21;15.77;;;10.40;;
25327;SDS011;13279;51.300;12.394;2023-07-20T06:32:49;20.73;;;11.23;;
25327;SDS011;13279;51.300;12.394;2023-07-20T06:35:18;15.27;;;11.33;;
25327;SDS011;13279;51.300;12.394;2023-07-20T06:37:46;16.33;;;10.97;;
25327;SDS011;13279;51.300;12.394;2023-07-20T06:40:13;18.27;;;10.57;;
25327;SDS011;13279;51.300;12.394;2023-07-20T06:42:42;18.33;;;10.27;;
25327;SDS011;13279;51.300;12.394;2023-07-20T06:45:10;14.27;;;9.80;;
25327;SDS011;13279;51.300;12.394;2023-07-20T06:47:38;15.57;;;9.97;;
25327;SDS011;13279;51.300;12.394;2023-07-20T06:50:05;16.10;;;10.33;;
25327;SDS011;13279;51.300;12.394;2023-07-20T06:52:33;14.43;;;9.57;;
25327;SDS011;13279;51.300;12.394;2023-07-20T06:55:00;11.37;;;7.87;;
25327;SDS011;13279;51.300;12.394;2023-07-20T06:57:28;13.70;;;7.90;;
25327;SDS011;13279;51.300;12.394;2023-07-20T06:59:56;11.13;;;7.23;;
25327;SDS011;13279;51.300;12.394;2023-07-20T07:02:24;9.87;;;7.33;;
25327;SDS011;13279;51.300;12.394;2023-07-20T07:04:51;9.03;;;7.20;;
25327;SDS011;13279;51.300;12.394;2023-07-20T07:07:19;9.07;;;6.73;;
25327;SDS011;13279;51.300;12.394;2023-07-20T07:09:46;8.53;;;6.73;;
25327;SDS011;13279;51.300;12.394;2023-07-20T07:12:14;11.17;;;6.00;;
25327;SDS011;13279;51.300;12.394;2023-07-20T07:14:41;9.30;;;6.57;;
25327;SDS011;13279;51.300;12.394;2023-07-20T07:17:10;9.47;;;6.63;;
25327;SDS011;13279;51.300;12.394;2023-07-20T07:19:37;9.33;;;6.63;;
25327;SDS011;13279;51.300;12.394;2023-07-20T07:22:06;9.33;;;6.03;;
25327;SDS011;13279;51.300;12.394;2023-07-20T07:24:33;6.50;;;5.90;;
25327;SDS011;13279;51.300;12.394;2023-07-20T07:27:00;6.37;;;5.50;;
25327;SDS011;13279;51.300;12.394;2023-07-20T07:29:29;7.80;;;5.97;;
25327;SDS011;13279;51.300;12.394;2023-07-20T07:31:56;8.87;;;6.27;;
25327;SDS011;13279;51.300;12.394;2023-07-20T07:34:25;6.97;;;5.20;;
25327;SDS011;13279;51.300;12.394;2023-07-20T07:36:52;8.60;;;6.20;;
25327;SDS011;13279;51.300;12.394;2023-07-20T07:39:20;5.77;;;5.13;;
25327;SDS011;13279;51.300;12.394;2023-07-20T07:41:47;6.83;;;5.17;;
25327;SDS011;13279;51.300;12.394;2023-07-20T07:44:15;6.93;;;5.53;;
25327;SDS011;13279;51.300;12.394;2023-07-20T07:46:42;8.30;;;5.20;;
25327;SDS011;13279;51.300;12.394;2023-07-20T07:49:09;5.07;;;4.67;;
25327;SDS011;13279;51.300;12.394;2023-07-20T07:51:38;5.30;;;4.80;;
25327;SDS011;13279;51.300;12.394;2023-07-20T07:54:06;5.60;;;5.10;;
25327;SDS011;13279;51.300;12.394;2023-07-20T07:56:37;6.67;;;4.97;;
25327;SDS011;13279;51.300;12.394;2023-07-20T07:59:22;6.10;;;4.03;;
25327;SDS011;13279;51.300;12.394;2023-07-20T08:01:52;7.80;;;4.37;;
25327;SDS011;13279;51.300;12.394;2023-07-20T08:04:24;11.57;;;4.83;;
25327;SDS011;13279;51.300;12.394;2023-07-20T08:06:53;6.73;;;5.03;;
25327;SDS011;13279;51.300;12.394;2023-07-20T08:09:21;9.20;;;4.43;;
25327;SDS011;13279;51.300;12.394;2023-07-20T08:11:48;5.67;;;5.17;;
25327;SDS011;13279;51.300;12.394;2023-07-20T08:14:16;5.60;;;5.00;;
25327;SDS011;13279;51.300;12.394;2023-07-20T08:16:44;11.30;;;4.53;;
25327;SDS011;13279;51.300;12.394;2023-07-20T08:19:13;9.20;;;4.83;;
25327;SDS011;13279;51.300;12.394;2023-07-20T08:21:40;5.63;;;5.13;;
25327;SDS011;13279;51.300;12.394;2023-07-20T08:24:16;10.80;;;4.90;;
25327;SDS011;13279;51.300;12.394;2023-07-20T08:27:15;5.33;;;4.83;;
25327;SDS011;13279;51.300;12.394;2023-07-20T08:29:46;6.60;;;5.57;;
25327;SDS011;13279;51.300;12.394;2023-07-20T08:32:13;5.97;;;5.17;;
25327;SDS011;13279;51.300;12.394;2023-07-20T08:34:41;11.10;;;7.73;;
25327;SDS011;13279;51.300;12.394;2023-07-20T08:37:09;11.40;;;7.50;;
25327;SDS011;13279;51.300;12.394;2023-07-20T08:39:38;9.17;;;6.30;;
25327;SDS011;13279;51.300;12.394;2023-07-20T08:42:05;12.73;;;7.00;;
25327;SDS011;13279;51.300;12.394;2023-07-20T08:44:33;7.63;;;6.53;;
25327;SDS011;13279;51.300;12.394;2023-07-20T08:47:02;6.80;;;6.10;;
25327;SDS011;13279;51.300;12.394;2023-07-20T08:49:31;8.37;;;6.03;;
25327;SDS011;13279;51.300;12.394;2023-07-20T08:51:59;6.10;;;5.57;;
25327;SDS011;13279;51.300;12.394;2023-07-20T08:54:28;6.07;;;5.17;;
25327;SDS011;13279;51.300;12.394;2023-07-20T08:56:59;6.03;;;5.43;;
25327;SDS011;13279;51.300;12.394;2023-07-20T08:59:31;7.77;;;5.00;;
25327;SDS011;13279;51.300;12.394;2023-07-20T09:01:59;5.77;;;4.43;;
25327;SDS011;13279;51.300;12.394;2023-07-20T09:04:28;7.67;;;4.50;;
25327;SDS011;13279;51.300;12.394;2023-07-20T09:06:57;5.33;;;4.10;;
25327;SDS011;13279;51.300;12.394;2023-07-20T09:09:24;4.07;;;3.60;;
25327;SDS011;13279;51.300;12.394;2023-07-20T09:11:52;8.73;;;4.40;;
25327;SDS011;13279;51.300;12.394;2023-07-20T09:14:20;5.37;;;3.90;;
25327;SDS011;13279;51.300;12.394;2023-07-20T09:16:50;7.77;;;5.27;;
25327;SDS011;13279;51.300;12.394;2023-07-20T09:19:20;9.67;;;5.20;;
25327;SDS011;13279;51.300;12.394;2023-07-20T09:21:49;5.90;;;5.37;;
25327;SDS011;13279;51.300;12.394;2023-07-20T09:24:19;7.70;;;4.00;;
25327;SDS011;13279;51.300;12.394;2023-07-20T09:26:53;8.47;;;3.83;;
25327;SDS011;13279;51.300;12.394;2023-07-20T09:29:23;5.47;;;4.40;;
25327;SDS011;13279;51.300;12.394;2023-07-20T09:32:00;5.57;;;5.07;;
25327;SDS011;13279;51.300;12.394;2023-07-20T09:34:28;7.17;;;5.10;;
25327;SDS011;13279;51.300;12.394;2023-07-20T09:36:57;5.70;;;4.93;;
25327;SDS011;13279;51.300;12.394;2023-07-20T09:39:25;11.07;;;5.67;;
25327;SDS011;13279;51.300;12.394;2023-07-20T09:41:52;5.70;;;4.87;;
25327;SDS011;13279;51.300;12.394;2023-07-20T09:44:20;9.40;;;5.57;;
25327;SDS011;13279;51.300;12.394;2023-07-20T09:46:49;5.30;;;4.80;;
25327;SDS011;13279;51.300;12.394;2023-07-20T09:49:17;6.13;;;5.53;;
25327;SDS011;13279;51.300;12.394;2023-07-20T09:51:45;5.50;;;4.97;;
25327;SDS011;13279;51.300;12.394;2023-07-20T09:54:13;11.10;;;5.47;;
25327;SDS011;13279;51.300;12.394;2023-07-20T09:56:40;6.93;;;5.37;;
25327;SDS011;13279;51.300;12.394;2023-07-20T09:59:10;13.33;;;7.53;;
25327;SDS011;13279;51.300;12.394;2023-07-20T10:01:37;9.33;;;6.67;;
25327;SDS011;13279;51.300;12.394;2023-07-20T10:04:09;9.27;;;6.87;;
25327;SDS011;13279;51.300;12.394;2023-07-20T10:06:39;10.67;;;6.30;;
25327;SDS011;13279;51.300;12.394;2023-07-20T10:09:10;5.23;;;4.73;;
25327;SDS011;13279;51.300;12.394;2023-07-20T10:11:43;7.60;;;4.60;;
25327;SDS011;13279;51.300;12.394;2023-07-20T10:14:16;9.43;;;4.80;;
25327;SDS011;13279;51.300;12.394;2023-07-20T10:16:50;10.50;;;5.27;;
25327;SDS011;13279;51.300;12.394;2023-07-20T10:19:22;10.53;;;5.47;;
25327;SDS011;13279;51.300;12.394;2023-07-20T10:21:55;10.13;;;5.73;;
25327;SDS011;13279;51.300;12.394;2023-07-20T10:24:26;7.13;;;6.43;;
25327;SDS011;13279;51.300;12.394;2023-07-20T10:26:55;11.30;;;6.33;;
25327;SDS011;13279;51.300;12.394;2023-07-20T10:29:22;9.30;;;5.43;;
25327;SDS011;13279;51.300;12.394;2023-07-20T10:31:53;8.03;;;6.70;;
25327;SDS011;13279;51.300;12.394;2023-07-20T10:34:22;9.77;;;7.27;;
25327;SDS011;13279;51.300;12.394;2023-07-20T10:36:50;9.93;;;8.57;;
25327;SDS011;13279;51.300;12.394;2023-07-20T10:39:22;15.27;;;9.23;;
25327;SDS011;13279;51.300;12.394;2023-07-20T10:41:59;12.13;;;9.47;;
25327;SDS011;13279;51.300;12.394;2023-07-20T10:44:28;10.40;;;9.30;;
25327;SDS011;13279;51.300;12.394;2023-07-20T10:47:00;10.23;;;7.73;;
25327;SDS011;13279;51.300;12.394;2023-07-20T10:49:29;7.30;;;6.60;;
25327;SDS011;13279;51.300;12.394;2023-07-20T10:52:03;11.10;;;7.00;;
25327;SDS011;13279;51.300;12.394;2023-07-20T10:54:35;9.30;;;5.30;;
25327;SDS011;13279;51.300;12.394;2023-07-20T10:57:29;5.50;;;5.10;;
25327;SDS011;13279;51.300;12.394;2023-07-20T11:00:10;4.87;;;4.07;;
25327;SDS011;13279;51.300;12.394;2023-07-20T11:02:43;7.70;;;3.37;;
25327;SDS011;13279;51.300;12.394;2023-07-20T11:08:10;5.53;;;3.03;;
25327;SDS011;13279;51.300;12.394;2023-07-20T11:10:38;4.30;;;3.63;;
25327;SDS011;13279;51.300;12.394;2023-07-20T11:13:18;2.70;;;2.50;;
25327;SDS011;13279;51.300;12.394;2023-07-20T11:15:48;3.67;;;2.53;;
25327;SDS011;13279;51.300;12.394;2023-07-20T11:18:29;2.47;;;2.27;;
25327;SDS011;13279;51.300;12.394;2023-07-20T11:21:00;2.33;;;2.23;;
25327;SDS011;13279;51.300;12.394;2023-07-20T11:23:28;1.80;;;1.70;;
25327;SDS011;13279;51.300;12.394;2023-07-20T11:25:58;4.67;;;1.90;;
25327;SDS011;13279;51.300;12.394;2023-07-20T11:28:26;1.67;;;1.57;;
25327;SDS011;13279;51.300;12.394;2023-07-20T11:30:57;1.60;;;1.50;;
25327;SDS011;13279;51.300;12.394;2023-07-20T11:33:24;2.07;;;1.97;;
25327;SDS011;13279;51.300;12.394;2023-07-20T11:35:51;3.23;;;1.80;;
25327;SDS011;13279;51.300;12.394;2023-07-20T11:38:21;5.57;;;1.90;;
25327;SDS011;13279;51.300;12.394;2023-07-20T11:40:49;2.27;;;1.80;;
25327;SDS011;13279;51.300;12.394;2023-07-20T11:43:16;2.17;;;1.90;;
25327;SDS011;13279;51.300;12.394;2023-07-20T11:45:46;1.90;;;1.80;;
25327;SDS011;13279;51.300;12.394;2023-07-20T11:48:14;3.20;;;1.97;;
25327;SDS011;13279;51.300;12.394;2023-07-20T11:50:41;2.57;;;2.20;;
25327;SDS011;13279;51.300;12.394;2023-07-20T11:53:08;3.33;;;2.30;;
25327;SDS011;13279;51.300;12.394;2023-07-20T11:55:39;2.97;;;2.30;;
25327;SDS011;13279;51.300;12.394;2023-07-20T11:58:07;5.23;;;2.53;;
25327;SDS011;13279;51.300;12.394;2023-07-20T12:00:36;2.43;;;2.23;;
25327;SDS011;13279;51.300;12.394;2023-07-20T12:03:05;5.20;;;2.27;;
25327;SDS011;13279;51.300;12.394;2023-07-20T12:05:33;3.67;;;2.40;;
25327;SDS011;13279;51.300;12.394;2023-07-20T12:08:01;3.87;;;2.40;;
25327;SDS011;13279;51.300;12.394;2023-07-20T12:10:29;3.70;;;2.50;;
25327;SDS011;13279;51.300;12.394;2023-07-20T12:13:02;3.87;;;2.30;;
25327;SDS011;13279;51.300;12.394;2023-07-20T12:15:30;3.30;;;2.30;;
25327;SDS011;13279;51.300;12.394;2023-07-20T12:17:58;4.43;;;2.90;;
25327;SDS011;13279;51.300;12.394;2023-07-20T12:20:28;2.87;;;2.57;;
25327;SDS011;13279;51.300;12.394;2023-07-20T12:22:57;4.13;;;3.07;;
25327;SDS011;13279;51.300;12.394;2023-07-20T12:25:36;4.63;;;3.37;;
25327;SDS011;13279;51.300;12.394;2023-07-20T12:28:06;3.20;;;2.97;;
25327;SDS011;13279;51.300;12.394;2023-07-20T12:30:35;5.50;;;3.23;;
25327;SDS011;13279;51.300;12.394;2023-07-20T12:33:03;3.80;;;3.50;;
25327;SDS011;13279;51.300;12.394;2023-07-20T12:35:31;6.10;;;3.17;;
25327;SDS011;13279;51.300;12.394;2023-07-20T12:37:59;6.80;;;3.33;;
25327;SDS011;13279;51.300;12.394;2023-07-20T12:40:26;3.70;;;2.60;;
25327;SDS011;13279;51.300;12.394;2023-07-20T12:42:54;3.20;;;2.90;;
25327;SDS011;13279;51.300;12.394;2023-07-20T12:45:23;3.17;;;2.87;;
25327;SDS011;13279;51.300;12.394;2023-07-20T12:47:50;3.17;;;2.97;;
25327;SDS011;13279;51.300;12.394;2023-07-20T12:50:18;3.00;;;2.80;;
25327;SDS011;13279;51.300;12.394;2023-07-20T12:52:46;1.57;;;1.40;;
25327;SDS011;13279;51.300;12.394;2023-07-20T12:55:15;1.90;;;1.57;;
25327;SDS011;13279;51.300;12.394;2023-07-20T12:57:47;1.37;;;1.27;;
25327;SDS011;13279;51.300;12.394;2023-07-20T13:00:15;1.10;;;1.10;;
25327;SDS011;13279;51.300;12.394;2023-07-20T13:02:44;2.80;;;0.93;;
25327;SDS011;13279;51.300;12.394;2023-07-20T13:05:12;0.73;;;0.73;;
25327;SDS011;13279;51.300;12.394;2023-07-20T13:07:42;0.80;;;0.80;;
25327;SDS011;13279;51.300;12.394;2023-07-20T13:10:10;1.33;;;0.70;;
25327;SDS011;13279;51.300;12.394;2023-07-20T13:12:42;1.67;;;1.10;;
25327;SDS011;13279;51.300;12.394;2023-07-20T13:15:12;0.80;;;0.80;;
25327;SDS011;13279;51.300;12.394;2023-07-20T13:17:40;1.87;;;0.90;;
25327;SDS011;13279;51.300;12.394;2023-07-20T13:20:10;1.07;;;0.90;;
25327;SDS011;13279;51.300;12.394;2023-07-20T13:22:38;0.87;;;0.80;;
25327;SDS011;13279;51.300;12.394;2023-07-20T13:25:06;3.17;;;0.90;;
25327;SDS011;13279;51.300;12.394;2023-07-20T13:27:38;0.90;;;0.90;;
25327;SDS011;13279;51.300;12.394;2023-07-20T13:30:05;1.67;;;0.83;;
25327;SDS011;13279;51.300;12.394;2023-07-20T13:32:35;0.97;;;0.97;;
25327;SDS011;13279;51.300;12.394;2023-07-20T13:35:03;1.97;;;1.33;;
25327;SDS011;13279;51.300;12.394;2023-07-20T13:37:32;1.33;;;1.33;;
25327;SDS011;13279;51.300;12.394;2023-07-20T13:39:59;1.50;;;1.50;;
25327;SDS011;13279;51.300;12.394;2023-07-20T13:42:27;1.83;;;1.37;;
25327;SDS011;13279;51.300;12.394;2023-07-20T13:44:54;2.57;;;1.73;;
25327;SDS011;13279;51.300;12.394;2023-07-20T13:47:22;1.63;;;1.53;;
25327;SDS011;13279;51.300;12.394;2023-07-20T13:49:49;1.70;;;1.60;;
25327;SDS011;13279;51.300;12.394;2023-07-20T13:52:17;1.67;;;1.57;;
25327;SDS011;13279;51.300;12.394;2023-07-20T13:54:45;3.43;;;1.83;;
25327;SDS011;13279;51.300;12.394;2023-07-20T13:57:13;5.23;;;1.73;;
25327;SDS011;13279;51.300;12.394;2023-07-20T13:59:41;2.07;;;1.47;;
25327;SDS011;13279;51.300;12.394;2023-07-20T14:02:08;2.53;;;1.90;;
25327;SDS011;13279;51.300;12.394;2023-07-20T14:04:36;1.60;;;1.50;;
25327;SDS011;13279;51.300;12.394;2023-07-20T14:07:04;1.73;;;1.47;;
25327;SDS011;13279;51.300;12.394;2023-07-20T14:09:32;1.70;;;1.60;;
25327;SDS011;13279;51.300;12.394;2023-07-20T14:12:01;1.20;;;1.20;;
25327;SDS011;13279;51.300;12.394;2023-07-20T14:14:28;1.40;;;1.40;;
25327;SDS011;13279;51.300;12.394;2023-07-20T14:16:56;1.23;;;1.23;;
25327;SDS011;13279;51.300;12.394;2023-07-20T14:19:24;1.20;;;1.20;;
25327;SDS011;13279;51.300;12.394;2023-07-20T14:21:52;0.97;;;0.97;;
25327;SDS011;13279;51.300;12.394;2023-07-20T14:24:20;1.07;;;1.07;;
25327;SDS011;13279;51.300;12.394;2023-07-20T14:26:48;0.82;;;0.82;;
25327;SDS011;13279;51.300;12.394;2023-07-20T14:29:17;1.00;;;1.00;;
25327;SDS011;13279;51.300;12.394;2023-07-20T14:31:45;1.23;;;1.23;;
25327;SDS011;13279;51.300;12.394;2023-07-20T14:34:16;1.03;;;1.00;;
25327;SDS011;13279;51.300;12.394;2023-07-20T14:36:44;1.30;;;1.30;;
25327;SDS011;13279;51.300;12.394;2023-07-20T14:39:11;3.00;;;1.20;;
25327;SDS011;13279;51.300;12.394;2023-07-20T14:41:39;1.23;;;1.10;;
25327;SDS011;13279;51.300;12.394;2023-07-20T14:44:06;1.30;;;1.30;;